Time;durP1;ratioP1;P1;durP2;ratioP2;P2;SDS_P1;SDS_P2;PMS_P1;PMS_P2;Temp;Humidity;BMP_temperature;BMP_pressure;BME280_temperature;BME280_humidity;BME280_pressure;Samples;Min_cycle;Max_cycle;Signal;HPM_P1;HPM_P2
2021/05/19 00:00:07;;;;;;;;;;;9.00;99.90;;;;;;5032645;28;20016;-78
2021/05/19 00:02:35;;;;;;;;;;;9.00;99.90;;;;;;5048727;28;19932;-78
2021/05/19 00:05:02;;;;;;;;;;;9.00;99.90;;;;;;5015997;28;20007;-77
2021/05/19 00:07:34;;;;;;;;;;;8.90;99.90;;;;;;5015898;28;20023;-78
2021/05/19 00:10:07;;;;;;;;;;;8.80;99.90;;;;;;5033120;28;19925;-77
2021/05/19 00:12:35;;;;;;;;;;;8.80;99.90;;;;;;4999486;28;19948;-77
2021/05/19 00:15:06;;;;;;;;;;;8.80;99.90;;;;;;5031439;28;19929;-78
2021/05/19 00:17:53;;;;;;;;;;;8.80;99.90;;;;;;4999048;28;20027;-77
2021/05/19 00:20:21;;;;;;;;;;;8.70;99.90;;;;;;4999770;28;20327;-77
2021/05/19 00:22:52;;;;;;;;;;;8.70;99.90;;;;;;5000202;28;20287;-78
2021/05/19 00:25:24;;;;;;;;;;;8.70;99.90;;;;;;5031439;28;19931;-77
2021/05/19 00:27:56;;;;;;;;;;;8.70;99.90;;;;;;5016855;28;20027;-77
2021/05/19 00:30:22;;;;;;;;;;;8.60;99.90;;;;;;5032151;28;19925;-78
2021/05/19 00:32:54;;;;;;;;;;;8.60;99.90;;;;;;5015571;28;19932;-78
2021/05/19 00:35:26;;;;;;;;;;;8.60;99.90;;;;;;5047919;28;19925;-77
2021/05/19 00:37:52;;;;;;;;;;;8.60;99.90;;;;;;5015615;28;19939;-77
2021/05/19 00:40:19;;;;;;;;;;;8.60;99.90;;;;;;5015457;28;20366;-78
2021/05/19 00:42:46;;;;;;;;;;;8.60;99.90;;;;;;5015846;28;19925;-77
2021/05/19 00:45:13;;;;;;;;;;;8.60;99.90;;;;;;5031739;28;19925;-77
2021/05/19 00:47:45;;;;;;;;;;;8.70;99.90;;;;;;5015487;28;20016;-77
2021/05/19 00:50:13;;;;;;;;;;;8.60;99.90;;;;;;5048501;28;19925;-78
2021/05/19 00:52:45;;;;;;;;;;;8.60;99.90;;;;;;5015345;28;20130;-77
2021/05/19 00:55:12;;;;;;;;;;;8.60;99.90;;;;;;5031789;28;20462;-77
2021/05/19 00:57:44;;;;;;;;;;;8.60;99.90;;;;;;5014969;28;20338;-77
2021/05/19 01:00:14;;;;;;;;;;;8.60;99.90;;;;;;5031519;28;20022;-77
2021/05/19 01:02:55;;;;;;;;;;;8.60;99.90;;;;;;5000494;28;19926;-77
2021/05/19 01:05:48;;;;;;;;;;;8.60;99.90;;;;;;5014953;28;19925;-77
2021/05/19 01:11:06;;;;;;;;;;;8.60;99.90;;;;;;5015001;28;20012;-78
2021/05/19 01:13:39;;;;;;;;;;;8.50;99.90;;;;;;5032711;28;19935;-78
2021/05/19 01:16:12;;;;;;;;;;;8.50;99.90;;;;;;5030589;28;19931;-78
2021/05/19 01:18:43;;;;;;;;;;;8.50;99.90;;;;;;4999046;28;20033;-77
2021/05/19 01:21:10;;;;;;;;;;;8.50;99.90;;;;;;5047642;28;20012;-78
2021/05/19 01:23:38;;;;;;;;;;;8.50;99.90;;;;;;5014705;28;19963;-77
2021/05/19 01:26:08;;;;;;;;;;;8.50;99.90;;;;;;5031137;28;20383;-77
2021/05/19 01:28:41;;;;;;;;;;;8.50;99.90;;;;;;5050834;28;19925;-77
2021/05/19 01:31:11;;;;;;;;;;;8.40;99.90;;;;;;5018525;28;19956;-77
2021/05/19 01:33:48;;;;;;;;;;;8.40;99.90;;;;;;5003279;28;20020;-78
2021/05/19 01:36:20;;;;;;;;;;;8.30;99.90;;;;;;5034773;28;20016;-78
2021/05/19 01:38:47;;;;;;;;;;;8.30;99.90;;;;;;5018941;28;20306;-78
2021/05/19 01:41:14;;;;;;;;;;;8.40;99.90;;;;;;5002506;28;19961;-77
2021/05/19 01:43:44;;;;;;;;;;;8.40;99.90;;;;;;5018937;28;19965;-77
2021/05/19 01:46:41;;;;;;;;;;;8.40;99.90;;;;;;5006200;28;19925;-78
2021/05/19 01:49:14;;;;;;;;;;;8.40;99.90;;;;;;5035582;28;20407;-77
2021/05/19 01:51:40;;;;;;;;;;;8.40;99.90;;;;;;5018262;28;20455;-78
2021/05/19 01:54:13;;;;;;;;;;;8.40;99.90;;;;;;5018510;28;19931;-78
2021/05/19 01:56:40;;;;;;;;;;;8.40;99.90;;;;;;5034943;28;20039;-78
2021/05/19 01:59:12;;;;;;;;;;;8.40;99.90;;;;;;5018516;28;19926;-79
2021/05/19 02:01:42;;;;;;;;;;;8.40;99.90;;;;;;5018143;28;19925;-77
2021/05/19 02:04:13;;;;;;;;;;;8.40;99.90;;;;;;5018387;28;19925;-77
2021/05/19 02:06:46;;;;;;;;;;;8.40;99.90;;;;;;5018297;28;19925;-78
2021/05/19 02:09:17;;;;;;;;;;;8.40;99.90;;;;;;5018185;28;19971;-78
2021/05/19 02:11:45;;;;;;;;;;;8.40;99.90;;;;;;5034502;28;19933;-78
2021/05/19 02:14:18;;;;;;;;;;;8.40;99.90;;;;;;5018162;28;19933;-78
2021/05/19 02:16:50;;;;;;;;;;;8.40;99.90;;;;;;5035585;28;20008;-77
2021/05/19 02:19:18;;;;;;;;;;;8.40;99.90;;;;;;5017933;28;19965;-78
2021/05/19 02:21:50;;;;;;;;;;;8.40;99.90;;;;;;5033791;28;19925;-78
2021/05/19 02:24:18;;;;;;;;;;;8.40;99.90;;;;;;5018005;28;19929;-78
2021/05/19 02:26:47;;;;;;;;;;;8.40;99.90;;;;;;5034128;28;20383;-78
2021/05/19 02:29:17;;;;;;;;;;;8.30;99.90;;;;;;5022008;28;19933;-78
2021/05/19 02:31:44;;;;;;;;;;;8.30;99.90;;;;;;5038514;28;19925;-78
2021/05/19 02:34:11;;;;;;;;;;;8.30;99.90;;;;;;5006009;28;19925;-79
2021/05/19 02:36:40;;;;;;;;;;;8.30;99.90;;;;;;5004383;28;20299;-78
2021/05/19 02:39:08;;;;;;;;;;;8.20;99.90;;;;;;5000624;28;19929;-77
2021/05/19 02:41:44;;;;;;;;;;;8.20;99.90;;;;;;5017663;28;20020;-77
2021/05/19 02:44:11;;;;;;;;;;;8.20;99.90;;;;;;5017669;28;19929;-78
2021/05/19 02:46:38;;;;;;;;;;;8.10;99.90;;;;;;5034219;28;20354;-77
2021/05/19 02:49:05;;;;;;;;;;;8.20;99.90;;;;;;5001287;28;19925;-77
2021/05/19 02:51:37;;;;;;;;;;;8.20;99.90;;;;;;5001700;28;20025;-78
2021/05/19 02:54:09;;;;;;;;;;;8.20;99.90;;;;;;5017281;28;19933;-77
2021/05/19 02:56:36;;;;;;;;;;;8.20;99.90;;;;;;5017723;28;20115;-77
2021/05/19 02:59:03;;;;;;;;;;;8.20;99.90;;;;;;5017317;28;19925;-77
2021/05/19 03:01:30;;;;;;;;;;;8.10;99.90;;;;;;5001269;28;20063;-77
2021/05/19 03:03:57;;;;;;;;;;;8.20;99.90;;;;;;5017077;28;19971;-78
2021/05/19 03:06:28;;;;;;;;;;;8.20;99.90;;;;;;5018118;28;19931;-77
2021/05/19 03:08:55;;;;;;;;;;;8.20;99.90;;;;;;5017160;28;19983;-78
2021/05/19 03:11:22;;;;;;;;;;;8.20;99.90;;;;;;5017344;28;19975;-79
2021/05/19 03:13:48;;;;;;;;;;;8.10;99.90;;;;;;5016260;28;20024;-76
2021/05/19 03:16:15;;;;;;;;;;;8.10;99.90;;;;;;5032610;28;19925;-79
2021/05/19 03:18:42;;;;;;;;;;;8.10;99.90;;;;;;5015780;28;19931;-77
2021/05/19 03:21:14;;;;;;;;;;;8.10;99.90;;;;;;5033162;28;20373;-77
2021/05/19 03:23:45;;;;;;;;;;;8.10;99.90;;;;;;5015532;28;19925;-77
2021/05/19 03:26:12;;;;;;;;;;;8.10;99.90;;;;;;5032465;28;20402;-77
2021/05/19 03:28:39;;;;;;;;;;;8.10;99.90;;;;;;4999019;28;19975;-77
2021/05/19 03:31:12;;;;;;;;;;;8.10;99.90;;;;;;4999740;28;19925;-76
2021/05/19 03:33:39;;;;;;;;;;;8.10;99.90;;;;;;5015217;28;20020;-77
2021/05/19 03:36:06;;;;;;;;;;;8.10;99.90;;;;;;5031806;28;20015;-76
2021/05/19 03:38:38;;;;;;;;;;;8.10;99.90;;;;;;5016642;28;19960;-76
2021/05/19 03:41:06;;;;;;;;;;;8.10;99.90;;;;;;4999432;28;19956;-76
2021/05/19 03:43:33;;;;;;;;;;;8.10;99.90;;;;;;5031989;28;19979;-75
2021/05/19 03:46:06;;;;;;;;;;;8.10;99.90;;;;;;5031634;28;19976;-78
2021/05/19 03:48:32;;;;;;;;;;;8.10;99.90;;;;;;5015752;28;20016;-76
2021/05/19 03:51:04;;;;;;;;;;;8.10;99.90;;;;;;5047469;28;20032;-77
2021/05/19 03:53:31;;;;;;;;;;;8.10;99.90;;;;;;5015527;28;20406;-77
2021/05/19 03:56:02;;;;;;;;;;;8.10;99.90;;;;;;5030849;28;19931;-77
2021/05/19 03:58:34;;;;;;;;;;;8.10;99.90;;;;;;5015113;28;19931;-77
2021/05/19 04:01:01;;;;;;;;;;;8.10;99.90;;;;;;5031431;28;20474;-77
2021/05/19 04:03:27;;;;;;;;;;;8.10;99.90;;;;;;5031746;28;20459;-77
2021/05/19 04:05:59;;;;;;;;;;;8.10;99.90;;;;;;5015038;28;20039;-77
2021/05/19 04:08:40;;;;;;;;;;;8.10;99.90;;;;;;5032312;28;19924;-77
2021/05/19 04:11:12;;;;;;;;;;;8.20;99.90;;;;;;5030543;28;19997;-77
2021/05/19 04:13:44;;;;;;;;;;;8.20;99.90;;;;;;5032177;28;19929;-76
2021/05/19 04:16:11;;;;;;;;;;;8.20;99.90;;;;;;5048017;28;20358;-77
2021/05/19 04:18:38;;;;;;;;;;;8.20;99.90;;;;;;5014907;28;20019;-77
2021/05/19 04:21:06;;;;;;;;;;;8.20;99.90;;;;;;5014675;28;19925;-78
2021/05/19 04:23:37;;;;;;;;;;;8.20;99.90;;;;;;5014893;28;19925;-77
2021/05/19 04:26:04;;;;;;;;;;;8.20;99.90;;;;;;5031171;28;19925;-76
2021/05/19 04:28:36;;;;;;;;;;;8.10;99.90;;;;;;5015685;28;20024;-77
2021/05/19 04:31:03;;;;;;;;;;;8.10;99.90;;;;;;5014488;28;20032;-77
2021/05/19 04:33:29;;;;;;;;;;;8.10;99.90;;;;;;5031051;28;19973;-77
2021/05/19 04:36:02;;;;;;;;;;;8.10;99.90;;;;;;5015817;28;19929;-77
2021/05/19 04:38:28;;;;;;;;;;;8.10;99.90;;;;;;5015044;28;20030;-77
2021/05/19 04:40:55;;;;;;;;;;;8.10;99.90;;;;;;5031272;28;19931;-77
2021/05/19 04:43:22;;;;;;;;;;;8.20;99.90;;;;;;5014768;28;19931;-77
2021/05/19 04:45:48;;;;;;;;;;;8.20;99.90;;;;;;4998311;28;20362;-76
2021/05/19 04:48:20;;;;;;;;;;;8.20;99.90;;;;;;5015512;28;19936;-76
2021/05/19 04:50:52;;;;;;;;;;;8.20;99.90;;;;;;4999058;28;19932;-76
2021/05/19 04:53:19;;;;;;;;;;;8.20;99.90;;;;;;5015011;28;19925;-76
2021/05/19 04:55:50;;;;;;;;;;;8.20;99.90;;;;;;5014898;28;20028;-77
2021/05/19 04:58:26;;;;;;;;;;;8.20;99.90;;;;;;5047831;28;19925;-77
2021/05/19 05:00:53;;;;;;;;;;;8.20;99.90;;;;;;5014605;28;19983;-77
2021/05/19 05:03:20;;;;;;;;;;;8.30;99.90;;;;;;5014351;28;19964;-77
2021/05/19 05:05:47;;;;;;;;;;;8.30;99.90;;;;;;5014598;28;19925;-77
2021/05/19 05:08:14;;;;;;;;;;;8.30;99.90;;;;;;4998563;28;20020;-78
2021/05/19 05:10:41;;;;;;;;;;;8.20;99.90;;;;;;5014527;28;19925;-76
2021/05/19 05:13:07;;;;;;;;;;;8.20;99.90;;;;;;5014596;28;20036;-77
2021/05/19 05:15:34;;;;;;;;;;;8.20;99.90;;;;;;5014433;28;19931;-77
2021/05/19 05:18:00;;;;;;;;;;;8.30;99.90;;;;;;4998152;28;20236;-77
2021/05/19 05:20:32;;;;;;;;;;;8.30;99.90;;;;;;5032002;28;19925;-76
2021/05/19 05:22:59;;;;;;;;;;;8.30;99.90;;;;;;5014487;28;20450;-76
2021/05/19 05:25:31;;;;;;;;;;;8.30;99.90;;;;;;5014247;28;19965;-76
2021/05/19 05:28:02;;;;;;;;;;;8.30;99.90;;;;;;5014997;28;19925;-77
2021/05/19 05:30:29;;;;;;;;;;;8.30;99.90;;;;;;5049313;28;19929;-77
2021/05/19 05:32:56;;;;;;;;;;;8.30;99.90;;;;;;5021099;28;19957;-78
2021/05/19 05:35:23;;;;;;;;;;;8.30;99.90;;;;;;5010369;28;20033;-77
2021/05/19 05:37:49;;;;;;;;;;;8.30;99.90;;;;;;5030916;28;20024;-78
2021/05/19 05:40:16;;;;;;;;;;;8.40;99.90;;;;;;5033416;28;19979;-77
2021/05/19 05:42:43;;;;;;;;;;;8.40;99.90;;;;;;5034038;28;20000;-78
2021/05/19 05:45:10;;;;;;;;;;;8.40;99.90;;;;;;5030763;28;20160;-76
2021/05/19 05:47:41;;;;;;;;;;;8.40;99.90;;;;;;5029914;28;20048;-76
2021/05/19 05:50:13;;;;;;;;;;;8.50;99.90;;;;;;5030179;28;20031;-77
2021/05/19 05:52:40;;;;;;;;;;;8.50;99.90;;;;;;5031554;28;19976;-77
2021/05/19 05:55:12;;;;;;;;;;;8.60;99.90;;;;;;5015079;28;20032;-76
2021/05/19 05:57:38;;;;;;;;;;;8.60;99.90;;;;;;5013920;28;19976;-76
2021/05/19 06:00:12;;;;;;;;;;;8.60;99.90;;;;;;5029281;28;19929;-77
2021/05/19 06:02:39;;;;;;;;;;;8.60;99.90;;;;;;5007641;28;19929;-78
2021/05/19 06:05:06;;;;;;;;;;;8.60;99.90;;;;;;5013159;28;19983;-77
2021/05/19 06:07:38;;;;;;;;;;;8.70;99.90;;;;;;5013335;28;20015;-77
2021/05/19 06:10:11;;;;;;;;;;;8.60;99.90;;;;;;5011187;28;19929;-78
2021/05/19 06:12:38;;;;;;;;;;;8.70;99.90;;;;;;5013047;28;19976;-76
2021/05/19 06:15:10;;;;;;;;;;;8.80;99.90;;;;;;5030938;28;19929;-77
2021/05/19 06:17:36;;;;;;;;;;;8.80;99.90;;;;;;5033547;28;20066;-76
2021/05/19 06:20:08;;;;;;;;;;;8.90;99.90;;;;;;5000880;28;20396;-76
2021/05/19 06:22:40;;;;;;;;;;;8.90;99.90;;;;;;5033392;28;19929;-76
2021/05/19 06:25:12;;;;;;;;;;;9.00;99.90;;;;;;5004596;28;19925;-76
2021/05/19 06:27:39;;;;;;;;;;;9.00;99.90;;;;;;5016618;28;19925;-77
2021/05/19 06:30:06;;;;;;;;;;;9.10;99.90;;;;;;5049107;28;19953;-77
2021/05/19 06:32:32;;;;;;;;;;;9.10;99.90;;;;;;5032685;28;19975;-76
2021/05/19 06:35:04;;;;;;;;;;;9.00;99.90;;;;;;5033856;28;20024;-76
2021/05/19 06:37:31;;;;;;;;;;;9.10;99.90;;;;;;5016410;28;20016;-76
2021/05/19 06:39:58;;;;;;;;;;;9.10;99.90;;;;;;5033396;28;19944;-78
2021/05/19 06:42:30;;;;;;;;;;;9.20;99.90;;;;;;5032889;28;19925;-76
2021/05/19 06:44:57;;;;;;;;;;;9.10;99.90;;;;;;5015902;28;20011;-79
2021/05/19 06:47:31;;;;;;;;;;;9.20;99.90;;;;;;5015862;28;19925;-76
2021/05/19 06:49:58;;;;;;;;;;;9.30;99.90;;;;;;4999875;28;20024;-76
2021/05/19 06:52:30;;;;;;;;;;;9.30;99.90;;;;;;5033301;28;19925;-76
2021/05/19 06:55:02;;;;;;;;;;;9.40;99.90;;;;;;5032950;28;19925;-77
2021/05/19 06:57:35;;;;;;;;;;;9.50;99.90;;;;;;5015846;28;20051;-77
2021/05/19 07:00:07;;;;;;;;;;;9.50;99.90;;;;;;5033513;28;19932;-77
2021/05/19 07:02:35;;;;;;;;;;;9.60;99.90;;;;;;5016271;28;20023;-76
2021/05/19 07:05:01;;;;;;;;;;;9.60;99.90;;;;;;5015683;28;20027;-77
2021/05/19 07:07:28;;;;;;;;;;;9.60;99.90;;;;;;5032116;28;19948;-76
2021/05/19 07:09:55;;;;;;;;;;;9.60;99.90;;;;;;5015346;28;20019;-76
2021/05/19 07:12:27;;;;;;;;;;;9.60;99.90;;;;;;5015144;28;19925;-77
2021/05/19 07:14:58;;;;;;;;;;;9.60;99.90;;;;;;5048528;28;19933;-76
2021/05/19 07:17:30;;;;;;;;;;;9.70;99.90;;;;;;5031210;28;19932;-76
2021/05/19 07:19:56;;;;;;;;;;;9.80;99.90;;;;;;5031784;28;19948;-78
2021/05/19 07:22:25;;;;;;;;;;;9.90;99.90;;;;;;5016598;28;19975;-76
2021/05/19 07:24:57;;;;;;;;;;;10.00;99.90;;;;;;5014323;28;19932;-76
2021/05/19 07:27:29;;;;;;;;;;;10.10;99.90;;;;;;5012995;28;19933;-76
2021/05/19 07:29:56;;;;;;;;;;;10.10;99.90;;;;;;5016543;28;19987;-76
2021/05/19 07:32:27;;;;;;;;;;;10.10;99.90;;;;;;4999636;28;20080;-76
2021/05/19 07:34:54;;;;;;;;;;;10.10;99.90;;;;;;5012176;28;20028;-76
2021/05/19 07:37:21;;;;;;;;;;;10.20;99.90;;;;;;5003212;28;19953;-76
2021/05/19 07:39:52;;;;;;;;;;;10.20;99.90;;;;;;5048900;28;19925;-76
2021/05/19 07:42:24;;;;;;;;;;;10.30;99.90;;;;;;5015706;28;19925;-76
2021/05/19 07:44:56;;;;;;;;;;;10.20;99.90;;;;;;5014042;28;20414;-78
2021/05/19 07:47:22;;;;;;;;;;;10.20;99.90;;;;;;5014463;28;19917;-79
2021/05/19 07:49:47;;;;;;;;;;;10.30;99.90;;;;;;5015324;28;19920;-77
2021/05/19 07:52:13;;;;;;;;;;;10.40;99.90;;;;;;5015153;28;19920;-76
2021/05/19 07:54:39;;;;;;;;;;;10.30;99.90;;;;;;5015459;28;20355;-76
2021/05/19 07:57:13;;;;;;;;;;;10.30;99.90;;;;;;5014551;28;20407;-76
2021/05/19 07:59:38;;;;;;;;;;;10.40;99.90;;;;;;5014534;28;19913;-77
2021/05/19 08:02:05;;;;;;;;;;;10.40;99.90;;;;;;5014447;28;20340;-76
2021/05/19 08:04:35;;;;;;;;;;;10.50;99.90;;;;;;5014486;28;20061;-78
2021/05/19 08:07:01;;;;;;;;;;;10.50;99.90;;;;;;5014611;28;20409;-76
2021/05/19 08:09:27;;;;;;;;;;;10.60;99.90;;;;;;5030638;28;20008;-76
2021/05/19 08:11:53;;;;;;;;;;;10.70;99.90;;;;;;5014584;28;19953;-76
2021/05/19 08:14:18;;;;;;;;;;;10.70;99.90;;;;;;4998294;28;19948;-76
2021/05/19 08:16:44;;;;;;;;;;;10.70;99.90;;;;;;5032454;28;19913;-76
2021/05/19 08:19:10;;;;;;;;;;;10.70;99.90;;;;;;5014640;28;19917;-76
2021/05/19 08:21:39;;;;;;;;;;;10.70;99.90;;;;;;5014941;28;19929;-77
2021/05/19 08:24:06;;;;;;;;;;;10.70;99.90;;;;;;5014920;28;20020;-76
2021/05/19 08:26:32;;;;;;;;;;;10.80;99.90;;;;;;5015000;28;20019;-77
2021/05/19 08:29:05;;;;;;;;;;;10.80;99.90;;;;;;5014602;28;19925;-76
2021/05/19 08:31:36;;;;;;;;;;;10.90;99.90;;;;;;4998766;28;20356;-79
2021/05/19 08:34:03;;;;;;;;;;;10.90;99.90;;;;;;5030982;28;20318;-77
2021/05/19 08:36:34;;;;;;;;;;;11.00;99.90;;;;;;5046503;28;19925;-78
2021/05/19 08:39:06;;;;;;;;;;;11.00;99.90;;;;;;4998819;28;20015;-76
2021/05/19 08:41:33;;;;;;;;;;;10.90;99.90;;;;;;4996551;28;19960;-79
2021/05/19 08:43:59;;;;;;;;;;;10.70;99.90;;;;;;5030131;28;19968;-79
2021/05/19 08:46:27;;;;;;;;;;;10.50;99.90;;;;;;5021367;28;19960;-77
2021/05/19 08:49:04;;;;;;;;;;;10.40;99.90;;;;;;5018757;28;19932;-76
2021/05/19 08:51:31;;;;;;;;;;;10.30;99.90;;;;;;5017979;28;19967;-78
2021/05/19 08:53:57;;;;;;;;;;;10.20;99.90;;;;;;4998485;28;19991;-77
2021/05/19 08:56:24;;;;;;;;;;;10.00;99.90;;;;;;5014624;28;20348;-76
2021/05/19 08:58:50;;;;;;;;;;;10.00;99.90;;;;;;5030723;28;20020;-76
2021/05/19 09:01:18;;;;;;;;;;;10.10;99.90;;;;;;5014774;28;19972;-76
2021/05/19 09:04:03;;;;;;;;;;;10.30;99.90;;;;;;5014736;28;20356;-76
2021/05/19 09:06:36;;;;;;;;;;;10.60;99.90;;;;;;5031608;28;19925;-76
2021/05/19 09:09:27;;;;;;;;;;;10.80;99.90;;;;;;5014129;28;20408;-76
2021/05/19 09:12:15;;;;;;;;;;;10.80;99.90;;;;;;5015893;28;19932;-78
2021/05/19 09:14:43;;;;;;;;;;;10.90;99.90;;;;;;5030903;28;20458;-77
2021/05/19 09:17:27;;;;;;;;;;;10.70;99.90;;;;;;5014600;28;19933;-76
2021/05/19 09:20:06;;;;;;;;;;;10.60;99.90;;;;;;5030905;28;20280;-79
2021/05/19 09:22:45;;;;;;;;;;;10.50;99.90;;;;;;4998479;28;19932;-79
2021/05/19 09:25:27;;;;;;;;;;;10.40;99.90;;;;;;5014116;28;19925;-79
2021/05/19 09:28:00;;;;;;;;;;;10.40;99.90;;;;;;5014147;28;19925;-80
2021/05/19 09:30:43;;;;;;;;;;;10.30;99.90;;;;;;5015132;28;19929;-79
2021/05/19 09:33:22;;;;;;;;;;;10.30;99.90;;;;;;5005513;28;20342;-79
2021/05/19 09:36:08;;;;;;;;;;;10.30;99.90;;;;;;5032219;28;19925;-80
2021/05/19 09:38:36;;;;;;;;;;;10.40;99.90;;;;;;5011458;28;19975;-79
2021/05/19 09:41:14;;;;;;;;;;;10.70;99.90;;;;;;4999111;28;20020;-79
2021/05/19 09:43:42;;;;;;;;;;;11.00;99.90;;;;;;5013950;28;19936;-79
2021/05/19 09:46:16;;;;;;;;;;;11.20;99.90;;;;;;4997911;28;19936;-80
2021/05/19 09:48:45;;;;;;;;;;;11.40;99.90;;;;;;4999074;28;20023;-78
2021/05/19 09:51:27;;;;;;;;;;;11.70;99.90;;;;;;5001989;28;19932;-79
2021/05/19 09:53:54;;;;;;;;;;;12.10;99.90;;;;;;5001461;28;19929;-79
2021/05/19 09:56:27;;;;;;;;;;;12.30;99.90;;;;;;5018546;28;19991;-79
2021/05/19 09:58:55;;;;;;;;;;;12.30;99.90;;;;;;5001509;28;19925;-79
2021/05/19 10:01:24;;;;;;;;;;;12.30;99.90;;;;;;5035135;28;20393;-79
2021/05/19 10:03:52;;;;;;;;;;;12.10;99.90;;;;;;5001250;28;19929;-79
2021/05/19 10:06:26;;;;;;;;;;;12.20;99.90;;;;;;5017337;28;19926;-79
2021/05/19 10:08:54;;;;;;;;;;;12.20;99.90;;;;;;5001240;28;19925;-78
2021/05/19 10:11:27;;;;;;;;;;;12.30;99.90;;;;;;5018768;28;19983;-79
2021/05/19 10:13:59;;;;;;;;;;;12.30;99.90;;;;;;5018182;28;19925;-79
2021/05/19 10:16:27;;;;;;;;;;;12.40;99.90;;;;;;5017693;28;19925;-79
2021/05/19 10:18:56;;;;;;;;;;;12.40;99.90;;;;;;5016779;28;19945;-78
2021/05/19 10:21:26;;;;;;;;;;;12.50;99.90;;;;;;5000921;28;20623;-79
2021/05/19 10:24:12;;;;;;;;;;;12.70;99.90;;;;;;5020667;28;20410;-79
2021/05/19 10:26:58;;;;;;;;;;;13.00;99.90;;;;;;5033267;28;20011;-79
2021/05/19 10:30:05;;;;;;;;;;;12.90;99.90;;;;;;5028650;28;19925;-78
2021/05/19 10:32:36;;;;;;;;;;;13.00;99.90;;;;;;4981222;28;19936;-79
2021/05/19 10:35:07;;;;;;;;;;;13.10;99.90;;;;;;4957780;28;19926;-79
2021/05/19 10:37:36;;;;;;;;;;;13.40;99.90;;;;;;4996026;28;19926;-79
2021/05/19 10:40:27;;;;;;;;;;;13.20;99.90;;;;;;5007001;28;19925;-79
2021/05/19 10:42:58;;;;;;;;;;;13.10;99.90;;;;;;5016850;28;19932;-79
2021/05/19 10:45:25;;;;;;;;;;;12.60;99.90;;;;;;5016736;28;19925;-80
2021/05/19 10:47:53;;;;;;;;;;;12.00;99.90;;;;;;5036722;28;19932;-80
2021/05/19 10:50:29;;;;;;;;;;;11.50;99.90;;;;;;5005116;28;20019;-81
2021/05/19 10:58:39;;;;;;;;;;;11.00;99.90;;;;;;5018178;28;19932;-80
2021/05/19 11:01:12;;;;;;;;;;;11.00;99.90;;;;;;5000654;28;19929;-80
2021/05/19 11:03:40;;;;;;;;;;;11.00;99.90;;;;;;5000820;28;19925;-80
2021/05/19 11:06:13;;;;;;;;;;;11.20;99.90;;;;;;5016780;28;20356;-80
2021/05/19 11:08:40;;;;;;;;;;;11.40;99.90;;;;;;5000391;28;19932;-80
2021/05/19 11:11:37;;;;;;;;;;;11.70;99.90;;;;;;5016174;28;19931;-80
2021/05/19 11:14:15;;;;;;;;;;;12.10;99.90;;;;;;5000498;28;19971;-80
2021/05/19 11:16:43;;;;;;;;;;;12.20;99.90;;;;;;5016784;28;19929;-80
2021/05/19 11:19:24;;;;;;;;;;;12.10;99.90;;;;;;5034910;28;19963;-80
2021/05/19 11:22:02;;;;;;;;;;;12.00;99.90;;;;;;5032541;28;19935;-80
2021/05/19 11:24:29;;;;;;;;;;;11.90;99.90;;;;;;5016877;28;19925;-79
2021/05/19 11:26:56;;;;;;;;;;;11.70;99.90;;;;;;5034131;28;19932;-80
2021/05/19 11:29:24;;;;;;;;;;;11.70;99.90;;;;;;4989162;28;19957;-80
2021/05/19 11:31:57;;;;;;;;;;;11.80;99.90;;;;;;4995798;28;19932;-80
2021/05/19 11:34:27;;;;;;;;;;;12.00;99.90;;;;;;5007217;28;19965;-80
2021/05/19 11:36:56;;;;;;;;;;;12.20;99.90;;;;;;5032746;28;20379;-80
2021/05/19 11:39:25;;;;;;;;;;;12.50;99.90;;;;;;5009501;28;19925;-80
2021/05/19 11:41:54;;;;;;;;;;;12.60;99.90;;;;;;5042951;28;19936;-80
2021/05/19 11:44:32;;;;;;;;;;;12.50;99.90;;;;;;5012495;28;19925;-80
2021/05/19 11:47:00;;;;;;;;;;;12.50;99.90;;;;;;5012411;28;20410;-79
2021/05/19 11:49:27;;;;;;;;;;;12.40;99.90;;;;;;4995855;28;19953;-80
2021/05/19 11:51:55;;;;;;;;;;;12.50;99.90;;;;;;5043749;28;19958;-80
2021/05/19 11:54:22;;;;;;;;;;;12.50;99.90;;;;;;5024153;28;20379;-80
2021/05/19 11:56:59;;;;;;;;;;;12.40;99.90;;;;;;5038166;28;19949;-79
2021/05/19 11:59:29;;;;;;;;;;;12.50;99.90;;;;;;5023235;28;19929;-80
2021/05/19 12:02:04;;;;;;;;;;;12.70;99.90;;;;;;5004551;28;19926;-79
2021/05/19 12:04:32;;;;;;;;;;;12.90;99.90;;;;;;5028389;28;19932;-79
2021/05/19 12:07:02;;;;;;;;;;;13.10;99.90;;;;;;5019254;28;19990;-80
2021/05/19 12:09:39;;;;;;;;;;;13.10;99.90;;;;;;5027571;28;19940;-79
2021/05/19 12:12:10;;;;;;;;;;;13.10;99.90;;;;;;5013121;28;19978;-79
2021/05/19 12:14:39;;;;;;;;;;;13.00;99.90;;;;;;5030869;28;19932;-79
2021/05/19 12:17:11;;;;;;;;;;;12.90;99.90;;;;;;5014948;28;20410;-79
2021/05/19 12:19:39;;;;;;;;;;;13.10;99.90;;;;;;4998785;28;19983;-78
2021/05/19 12:22:11;;;;;;;;;;;13.20;99.90;;;;;;5047993;28;19944;-79
2021/05/19 12:24:39;;;;;;;;;;;13.20;99.90;;;;;;4998907;28;19979;-79
2021/05/19 12:27:08;;;;;;;;;;;13.20;99.90;;;;;;5030503;28;19955;-79
2021/05/19 12:29:50;;;;;;;;;;;13.20;99.90;;;;;;5016686;28;19960;-79
2021/05/19 12:32:21;;;;;;;;;;;13.30;99.90;;;;;;5012211;28;19925;-79
2021/05/19 12:35:00;;;;;;;;;;;13.50;99.90;;;;;;4992554;28;19925;-79
2021/05/19 12:37:44;;;;;;;;;;;13.70;99.90;;;;;;5000097;28;20043;-78
2021/05/19 12:40:12;;;;;;;;;;;13.90;99.90;;;;;;5016699;28;19924;-79
2021/05/19 12:42:43;;;;;;;;;;;13.90;99.90;;;;;;5018330;28;20124;-79
2021/05/19 12:45:12;;;;;;;;;;;13.80;99.90;;;;;;5067497;28;20358;-78
2021/05/19 12:47:44;;;;;;;;;;;13.70;99.90;;;;;;5006023;28;20300;-79
2021/05/19 12:50:11;;;;;;;;;;;13.90;99.90;;;;;;5014527;28;19925;-79
2021/05/19 12:52:39;;;;;;;;;;;14.00;99.90;;;;;;4998336;28;19925;-79
2021/05/19 12:55:07;;;;;;;;;;;14.30;99.90;;;;;;5014621;28;19979;-78
2021/05/19 12:57:39;;;;;;;;;;;14.30;99.90;;;;;;5013827;28;20024;-78
2021/05/19 13:00:14;;;;;;;;;;;14.40;99.90;;;;;;5008956;28;19926;-78
2021/05/19 13:02:42;;;;;;;;;;;14.30;99.90;;;;;;5027194;28;19925;-78
2021/05/19 13:05:23;;;;;;;;;;;14.30;99.90;;;;;;4978159;28;19976;-78
2021/05/19 13:07:51;;;;;;;;;;;14.50;99.90;;;;;;4978201;28;19925;-79
2021/05/19 13:10:40;;;;;;;;;;;14.40;99.90;;;;;;4994553;28;20372;-79
2021/05/19 13:15:45;;;;;;;;;;;14.90;99.90;;;;;;5003078;28;20441;-78
2021/05/19 13:18:24;;;;;;;;;;;15.20;99.90;;;;;;5015415;28;19971;-79
2021/05/19 13:21:12;;;;;;;;;;;15.20;99.90;;;;;;5012665;28;19967;-78
2021/05/19 13:23:45;;;;;;;;;;;15.00;99.90;;;;;;4997768;28;19925;-79
2021/05/19 13:26:17;;;;;;;;;;;14.70;99.90;;;;;;5001578;28;19926;-78
2021/05/19 13:28:45;;;;;;;;;;;14.50;99.90;;;;;;5017657;28;19925;-79
2021/05/19 13:31:14;;;;;;;;;;;14.40;99.90;;;;;;5001545;28;19926;-79
2021/05/19 13:36:39;;;;;;;;;;;14.10;99.90;;;;;;4998803;28;19925;-79
2021/05/19 13:39:21;;;;;;;;;;;14.10;99.90;;;;;;4983176;28;19929;-79
2021/05/19 13:41:50;;;;;;;;;;;14.10;99.90;;;;;;5015401;28;19925;-79
2021/05/19 13:44:22;;;;;;;;;;;14.00;99.90;;;;;;5014385;28;19939;-79
2021/05/19 13:46:50;;;;;;;;;;;14.10;99.90;;;;;;4982718;28;19925;-79
2021/05/19 13:51:46;;;;;;;;;;;14.60;99.90;;;;;;4998533;28;19976;-79
2021/05/19 13:54:13;;;;;;;;;;;14.50;99.90;;;;;;5031435;28;19937;-79
2021/05/19 13:56:40;;;;;;;;;;;14.20;99.90;;;;;;5016494;28;19932;-79
2021/05/19 13:59:07;;;;;;;;;;;14.00;99.90;;;;;;5014989;28;19929;-79
2021/05/19 14:01:35;;;;;;;;;;;14.10;99.90;;;;;;4998732;28;20387;-79
2021/05/19 14:04:03;;;;;;;;;;;14.00;99.90;;;;;;5031344;28;20347;-79
2021/05/19 14:06:30;;;;;;;;;;;14.10;99.90;;;;;;5015231;28;20276;-80
2021/05/19 14:08:56;;;;;;;;;;;14.30;99.90;;;;;;4998676;28;19925;-79
2021/05/19 14:11:26;;;;;;;;;;;14.60;99.90;;;;;;4998477;28;19935;-78
2021/05/19 14:14:05;;;;;;;;;;;14.80;99.90;;;;;;5014682;28;19925;-79
2021/05/19 14:16:53;;;;;;;;;;;15.10;99.90;;;;;;4981840;28;19932;-78
2021/05/19 14:27:39;;;;;;;;;;;15.10;99.90;;;;;;5030583;28;19930;-79
2021/05/19 14:30:10;;;;;;;;;;;15.00;99.90;;;;;;5013988;28;20173;-79
2021/05/19 14:32:37;;;;;;;;;;;15.10;99.90;;;;;;5014024;28;19960;-79
2021/05/19 14:35:07;;;;;;;;;;;15.30;99.90;;;;;;5012312;28;19932;-79
2021/05/19 15:01:39;;;;;;;;;;;14.40;99.90;;;;;;4996906;28;20360;-78
2021/05/19 15:04:06;;;;;;;;;;;14.10;99.90;;;;;;4999163;28;20020;-78
2021/05/19 15:06:33;;;;;;;;;;;13.70;99.90;;;;;;5003392;28;19957;-78
2021/05/19 15:08:59;;;;;;;;;;;13.40;99.90;;;;;;4986666;28;19989;-78
2021/05/19 15:11:27;;;;;;;;;;;13.10;99.90;;;;;;5043117;28;19957;-78
2021/05/19 15:13:55;;;;;;;;;;;12.90;99.90;;;;;;5018063;28;19983;-77
2021/05/19 15:16:22;;;;;;;;;;;12.70;99.90;;;;;;4998799;28;19932;-77
2021/05/19 15:18:48;;;;;;;;;;;12.40;99.90;;;;;;5013837;28;20085;-77
2021/05/19 15:21:20;;;;;;;;;;;12.10;99.90;;;;;;4982210;28;20295;-77
2021/05/19 15:23:48;;;;;;;;;;;11.90;99.90;;;;;;5014166;28;20016;-77
2021/05/19 15:26:15;;;;;;;;;;;11.70;99.90;;;;;;5014003;28;20023;-77
2021/05/19 15:28:42;;;;;;;;;;;11.30;99.90;;;;;;4981656;28;19948;-76
2021/05/19 15:31:08;;;;;;;;;;;10.80;99.90;;;;;;4997621;28;19980;-78